createdAt,value
2023-03-25T00:00:19.402Z,13.45
2023-03-25T00:03:09.456Z,13.47
2023-03-25T00:05:41.308Z,13.46
2023-03-25T00:08:10.009Z,13.43
2023-03-25T00:10:38.069Z,13.38
2023-03-25T00:13:08.374Z,13.34
2023-03-25T00:15:36.584Z,13.30
2023-03-25T00:18:04.912Z,13.26
2023-03-25T00:20:33.531Z,13.23
2023-03-25T00:23:01.633Z,13.19
2023-03-25T00:25:30.195Z,13.17
2023-03-25T00:27:58.771Z,13.13
2023-03-25T00:30:26.923Z,13.12
2023-03-25T00:32:55.213Z,13.11
2023-03-25T00:35:44.980Z,13.12
2023-03-25T00:38:13.031Z,13.07
2023-03-25T00:40:41.149Z,13.07
2023-03-25T00:43:11.259Z,13.05
2023-03-25T00:45:39.281Z,13.00
2023-03-25T00:48:07.541Z,13.02
2023-03-25T00:50:35.502Z,13.02
2023-03-25T00:53:03.768Z,13.02
2023-03-25T00:55:31.834Z,13.03
2023-03-25T00:57:59.742Z,13.05
2023-03-25T01:00:27.946Z,13.08
2023-03-25T01:02:56.333Z,13.11
2023-03-25T01:05:25.103Z,13.11
2023-03-25T01:07:53.217Z,13.11
2023-03-25T01:10:22.352Z,13.07
2023-03-25T01:12:50.844Z,13.04
2023-03-25T01:15:19.981Z,13.02
2023-03-25T01:17:48.649Z,13.00
2023-03-25T01:20:17.062Z,12.97
2023-03-25T01:22:45.328Z,12.97
2023-03-25T01:25:13.899Z,12.95
2023-03-25T01:27:42.062Z,12.94
2023-03-25T01:30:11.191Z,12.92
2023-03-25T01:32:39.692Z,12.92
2023-03-25T01:35:08.756Z,12.93
2023-03-25T01:37:38.988Z,12.93
2023-03-25T01:40:10.120Z,12.92
2023-03-25T01:42:38.236Z,12.89
2023-03-25T01:45:21.594Z,12.87
2023-03-25T01:47:59.038Z,12.86
2023-03-25T01:50:30.366Z,12.83
2023-03-25T01:53:02.064Z,12.80
2023-03-25T01:55:33.436Z,12.78
2023-03-25T01:58:07.617Z,12.76
2023-03-25T02:00:37.760Z,12.70
2023-03-25T02:03:09.470Z,12.61
2023-03-25T02:05:56.826Z,12.54
2023-03-25T02:08:26.405Z,12.50
2023-03-25T02:10:55.808Z,12.46
2023-03-25T02:13:24.141Z,12.43
2023-03-25T02:16:11.375Z,12.42
2023-03-25T02:18:56.920Z,12.40
2023-03-25T02:21:31.012Z,12.39
2023-03-25T02:24:05.763Z,12.39
2023-03-25T02:27:14.366Z,12.41
2023-03-25T02:29:54.192Z,12.41
2023-03-25T02:32:38.712Z,12.39
2023-03-25T02:35:50.145Z,12.41
2023-03-25T02:38:24.807Z,12.41
2023-03-25T02:41:26.146Z,12.41
2023-03-25T02:43:59.524Z,12.41
2023-03-25T02:46:30.066Z,12.41
2023-03-25T02:49:12.895Z,12.42
2023-03-25T02:51:53.362Z,12.40
2023-03-25T02:54:24.399Z,12.37
2023-03-25T02:56:57.803Z,12.35
2023-03-25T02:59:30.239Z,12.31
2023-03-25T03:02:03.930Z,12.31
2023-03-25T03:04:32.448Z,12.30
2023-03-25T03:07:01.328Z,12.26
2023-03-25T03:09:35.973Z,12.23
2023-03-25T03:12:15.745Z,12.19
2023-03-25T03:14:49.895Z,12.17
2023-03-25T03:17:39.593Z,12.15
2023-03-25T03:20:26.978Z,12.13
2023-03-25T03:23:07.558Z,12.12
2023-03-25T03:25:51.249Z,12.14
2023-03-25T03:28:25.525Z,12.15
2023-03-25T03:30:58.922Z,12.15
2023-03-25T03:33:33.836Z,12.18
2023-03-25T03:36:06.731Z,12.20
2023-03-25T03:38:49.278Z,12.19
2023-03-25T03:41:21.823Z,12.15
2023-03-25T03:43:59.709Z,12.10
2023-03-25T03:46:33.939Z,12.09
2023-03-25T03:49:09.973Z,12.08
2023-03-25T03:51:57.291Z,12.08
2023-03-25T03:54:32.470Z,12.07
2023-03-25T03:57:21.213Z,12.07
2023-03-25T04:00:06.684Z,12.06
2023-03-25T04:02:47.994Z,12.04
2023-03-25T04:05:20.205Z,12.03
2023-03-25T04:08:03.028Z,12.03
2023-03-25T04:10:35.061Z,12.03
2023-03-25T04:13:08.549Z,11.99
2023-03-25T04:15:37.653Z,11.98
2023-03-25T04:18:06.169Z,11.97
2023-03-25T04:20:36.672Z,11.96
2023-03-25T04:23:05.209Z,11.90
2023-03-25T04:25:34.035Z,11.92
2023-03-25T04:28:02.162Z,11.91
2023-03-25T04:30:31.195Z,11.89
2023-03-25T04:33:00.942Z,11.87
2023-03-25T04:35:29.560Z,11.89
2023-03-25T04:37:58.383Z,11.88
2023-03-25T04:40:26.622Z,11.83
2023-03-25T04:42:56.927Z,11.81
2023-03-25T04:45:26.253Z,11.78
2023-03-25T04:47:54.843Z,11.73
2023-03-25T04:50:27.448Z,11.68
2023-03-25T04:53:00.644Z,11.62
2023-03-25T04:55:30.246Z,11.56
2023-03-25T04:57:58.792Z,11.53
2023-03-25T05:00:27.287Z,11.50
2023-03-25T05:02:56.664Z,11.48
2023-03-25T05:05:26.045Z,11.45
2023-03-25T05:07:55.532Z,11.44
2023-03-25T05:10:25.614Z,11.43
2023-03-25T05:13:06.717Z,11.40
2023-03-25T05:15:39.725Z,11.34
2023-03-25T05:18:14.393Z,11.31
2023-03-25T05:20:45.200Z,11.29
2023-03-25T05:23:18.349Z,11.27
2023-03-25T05:25:51.958Z,11.27
2023-03-25T05:28:20.308Z,11.28
2023-03-25T05:30:48.871Z,11.30
2023-03-25T05:33:19.149Z,11.32
2023-03-25T05:35:47.651Z,11.37
2023-03-25T05:38:18.895Z,11.43
2023-03-25T05:40:48.984Z,11.48
2023-03-25T05:43:22.838Z,11.52
2023-03-25T05:45:51.221Z,11.57
2023-03-25T05:48:19.563Z,11.60
2023-03-25T05:50:47.594Z,11.61
2023-03-25T05:53:16.196Z,11.63
2023-03-25T05:55:44.366Z,11.67
2023-03-25T05:58:12.622Z,11.69
2023-03-25T06:00:41.337Z,11.73
2023-03-25T06:03:11.147Z,11.76
2023-03-25T06:05:39.850Z,11.82
2023-03-25T06:08:08.569Z,11.90
2023-03-25T06:10:36.946Z,11.97
2023-03-25T06:13:05.005Z,12.05
2023-03-25T06:15:39.636Z,12.15
2023-03-25T06:18:11.095Z,12.21
2023-03-25T06:20:39.046Z,12.26
2023-03-25T06:23:08.124Z,12.34
2023-03-25T06:25:36.190Z,12.43
2023-03-25T06:28:05.005Z,12.47
2023-03-25T06:30:52.915Z,12.46
2023-03-25T06:33:42.166Z,12.48
2023-03-25T06:36:11.595Z,12.54
2023-03-25T06:38:40.405Z,12.61
2023-03-25T06:41:14.036Z,12.65
2023-03-25T06:43:45.005Z,12.72
2023-03-25T06:46:31.980Z,12.82
2023-03-25T06:49:03.071Z,12.91
2023-03-25T06:51:31.372Z,13.03
2023-03-25T06:53:59.414Z,13.15
2023-03-25T06:56:27.754Z,13.26
2023-03-25T06:58:55.908Z,13.36
2023-03-25T07:01:24.160Z,13.51
2023-03-25T07:04:12.511Z,13.73
2023-03-25T07:06:41.237Z,13.98
2023-03-25T07:09:09.218Z,14.12
2023-03-25T07:11:37.500Z,14.22
2023-03-25T07:14:05.464Z,14.31
2023-03-25T07:16:33.917Z,14.39
2023-03-25T07:19:01.911Z,14.49
2023-03-25T07:21:29.849Z,14.58
2023-03-25T07:23:57.929Z,14.67
2023-03-25T07:26:25.968Z,14.82
2023-03-25T07:28:54.026Z,15.02
2023-03-25T07:31:22.092Z,15.30
2023-03-25T07:33:51.634Z,15.68
2023-03-25T07:36:22.047Z,16.03
2023-03-25T07:38:50.080Z,16.37
2023-03-25T07:41:18.117Z,16.73
2023-03-25T07:44:06.349Z,16.98
2023-03-25T07:46:34.448Z,17.14
2023-03-25T07:49:02.970Z,17.13
2023-03-25T07:51:33.311Z,16.97
2023-03-25T07:54:05.079Z,16.80
2023-03-25T07:56:34.499Z,16.72
2023-03-25T07:59:03.266Z,16.78
2023-03-25T08:01:32.217Z,16.78
2023-03-25T08:04:00.596Z,16.65
2023-03-25T08:06:28.719Z,16.48
2023-03-25T08:08:56.952Z,16.32
2023-03-25T08:11:25.240Z,16.30
2023-03-25T08:13:53.496Z,16.55
2023-03-25T08:16:26.566Z,17.03
2023-03-25T08:18:54.777Z,17.74
2023-03-25T08:21:25.313Z,18.46
2023-03-25T08:23:58.921Z,19.10
2023-03-25T08:26:27.461Z,19.70
2023-03-25T08:28:58.124Z,20.05
2023-03-25T08:31:31.068Z,20.07
2023-03-25T08:34:01.114Z,20.12
2023-03-25T08:36:29.285Z,20.30
2023-03-25T08:38:57.643Z,20.46
2023-03-25T08:41:26.229Z,20.27
2023-03-25T08:43:54.371Z,19.98
2023-03-25T08:46:23.386Z,19.67
2023-03-25T08:48:51.508Z,19.40
2023-03-25T08:51:19.481Z,19.10
2023-03-25T08:53:47.690Z,18.82
2023-03-25T08:56:15.799Z,18.72
2023-03-25T08:58:43.769Z,18.77
2023-03-25T09:01:12.289Z,19.01
2023-03-25T09:03:41.176Z,19.37
2023-03-25T09:06:09.637Z,19.62
2023-03-25T09:08:37.810Z,19.91
2023-03-25T09:11:06.155Z,20.23
2023-03-25T09:13:34.404Z,20.49
2023-03-25T09:16:02.439Z,20.72
2023-03-25T09:18:32.220Z,20.93
2023-03-25T09:21:00.526Z,21.06
2023-03-25T09:23:29.238Z,21.14
2023-03-25T09:26:02.313Z,21.37
2023-03-25T09:28:30.389Z,21.62
2023-03-25T09:30:58.708Z,21.95
2023-03-25T09:33:27.738Z,22.24
2023-03-25T09:35:56.259Z,22.73
2023-03-25T09:38:24.461Z,23.12
2023-03-25T09:40:52.458Z,23.32
2023-03-25T09:43:28.141Z,23.22
2023-03-25T09:45:58.529Z,22.93
2023-03-25T09:48:38.424Z,22.55
2023-03-25T09:51:14.435Z,22.10
2023-03-25T09:54:08.921Z,21.51
2023-03-25T09:56:42.320Z,20.74
2023-03-25T09:59:16.839Z,20.16
2023-03-25T10:01:50.900Z,19.71
2023-03-25T10:04:40.687Z,19.29
2023-03-25T10:07:17.831Z,18.78
2023-03-25T10:10:00.456Z,18.38
2023-03-25T10:12:37.708Z,18.10
2023-03-25T10:15:35.358Z,17.88
2023-03-25T10:18:20.490Z,17.59
2023-03-25T10:21:05.932Z,17.35
2023-03-25T10:23:46.810Z,17.07
2023-03-25T10:26:33.194Z,16.72
2023-03-25T10:29:06.512Z,16.30
2023-03-25T10:31:43.523Z,15.84
2023-03-25T10:34:20.605Z,15.43
2023-03-25T10:37:06.874Z,15.21
2023-03-25T10:39:38.484Z,15.21
2023-03-25T10:42:35.168Z,15.62
2023-03-25T10:45:05.065Z,16.70
2023-03-25T10:47:38.357Z,17.75
2023-03-25T10:50:14.550Z,18.77
2023-03-25T10:52:43.579Z,19.58
2023-03-25T10:55:29.284Z,20.38
2023-03-25T10:57:57.815Z,20.88
2023-03-25T11:00:28.049Z,21.37
2023-03-25T11:02:57.308Z,21.88
2023-03-25T11:05:29.710Z,22.47
2023-03-25T11:08:18.049Z,23.05
2023-03-25T11:10:57.923Z,23.65
2023-03-25T11:13:31.407Z,24.17
2023-03-25T11:16:03.597Z,24.55
2023-03-25T11:18:40.954Z,24.79
2023-03-25T11:21:13.219Z,24.92
2023-03-25T11:23:48.226Z,24.77
2023-03-25T11:26:21.570Z,24.12
2023-03-25T11:29:13.157Z,23.20
2023-03-25T11:31:42.488Z,22.08
2023-03-25T11:34:13.911Z,21.28
2023-03-25T11:36:55.944Z,21.28
2023-03-25T11:39:23.910Z,21.34
2023-03-25T11:41:52.622Z,21.47
2023-03-25T11:44:30.596Z,21.41
2023-03-25T11:47:10.823Z,20.95
2023-03-25T11:49:41.612Z,20.42
2023-03-25T11:52:17.946Z,20.01
2023-03-25T11:54:46.662Z,19.66
2023-03-25T11:57:21.194Z,19.33
2023-03-25T11:59:57.868Z,19.02
2023-03-25T12:02:31.326Z,18.71
2023-03-25T12:05:04.267Z,18.37
2023-03-25T12:07:43.142Z,18.08
2023-03-25T12:10:19.031Z,17.92
2023-03-25T12:12:56.846Z,17.72
2023-03-25T12:15:40.816Z,17.46
2023-03-25T12:18:25.240Z,17.22
2023-03-25T12:21:00.034Z,17.36
2023-03-25T12:23:54.664Z,17.29
2023-03-25T12:26:51.545Z,16.95
2023-03-25T12:29:42.272Z,16.59
2023-03-25T12:32:22.679Z,16.21
2023-03-25T12:34:57.810Z,15.79
2023-03-25T12:38:07.287Z,15.40
2023-03-25T12:40:56.782Z,15.03
2023-03-25T12:44:08.029Z,14.94
2023-03-25T12:47:09.095Z,15.01
2023-03-25T12:50:00.800Z,15.25
2023-03-25T12:53:18.701Z,15.65
2023-03-25T12:56:27.683Z,16.23
2023-03-25T12:59:32.020Z,17.40
2023-03-25T13:02:15.592Z,18.74
2023-03-25T13:05:05.096Z,19.61
2023-03-25T13:07:42.905Z,20.37
2023-03-25T13:10:37.433Z,21.00
2023-03-25T13:13:27.145Z,21.41
2023-03-25T13:16:17.986Z,21.42
2023-03-25T13:19:02.386Z,21.28
2023-03-25T13:21:39.485Z,21.39
2023-03-25T13:24:23.986Z,21.72
2023-03-25T13:26:55.856Z,21.93
2023-03-25T13:29:30.141Z,21.91
2023-03-25T13:32:03.316Z,21.46
2023-03-25T13:34:43.718Z,20.76
2023-03-25T13:37:24.742Z,19.97
2023-03-25T13:40:14.849Z,19.18
2023-03-25T13:42:56.123Z,18.54
2023-03-25T13:45:28.078Z,18.17
2023-03-25T13:48:03.584Z,17.93
2023-03-25T13:50:32.876Z,17.67
2023-03-25T13:53:08.123Z,17.41
2023-03-25T13:55:45.310Z,17.14
2023-03-25T13:58:18.887Z,16.94
2023-03-25T14:01:18.753Z,16.91
2023-03-25T14:04:16.702Z,17.04
2023-03-25T14:07:21.389Z,17.20
2023-03-25T14:10:11.599Z,17.40
2023-03-25T14:13:07.062Z,17.60
2023-03-25T14:15:40.005Z,17.62
2023-03-25T14:18:19.090Z,17.50
2023-03-25T14:20:50.877Z,17.31
2023-03-25T14:23:23.287Z,17.16
2023-03-25T14:26:00.813Z,16.98
2023-03-25T14:28:47.932Z,16.83
2023-03-25T14:31:22.482Z,16.69
2023-03-25T14:34:00.338Z,16.55
2023-03-25T14:36:55.923Z,16.42
2023-03-25T14:39:30.507Z,16.31
2023-03-25T14:42:08.802Z,16.24
2023-03-25T14:45:01.958Z,16.26
2023-03-25T14:47:34.785Z,16.28
2023-03-25T14:50:27.024Z,16.17
2023-03-25T14:53:00.905Z,16.00
2023-03-25T14:55:30.939Z,15.93
2023-03-25T14:58:17.430Z,15.90
2023-03-25T15:01:01.570Z,15.78
2023-03-25T15:03:44.343Z,15.64
2023-03-25T15:06:19.352Z,15.56
2023-03-25T15:08:54.986Z,15.50
2023-03-25T15:11:38.360Z,15.40
2023-03-25T15:14:21.755Z,15.31
2023-03-25T15:16:50.001Z,15.15
2023-03-25T15:19:21.640Z,14.92
2023-03-25T15:22:00.553Z,14.68
2023-03-25T15:24:40.760Z,14.52
2023-03-25T15:27:41.684Z,14.49
2023-03-25T15:30:33.766Z,14.48
2023-03-25T15:33:29.727Z,14.44
2023-03-25T15:36:28.696Z,14.39
2023-03-25T15:39:29.651Z,14.29
2023-03-25T15:42:36.547Z,14.27
2023-03-25T15:45:17.030Z,14.34
2023-03-25T15:48:23.856Z,14.34
2023-03-25T15:51:19.357Z,14.25
2023-03-25T15:54:12.653Z,14.19
2023-03-25T15:56:42.877Z,14.13
2023-03-25T15:59:41.696Z,14.15
2023-03-25T16:02:36.242Z,14.16
2023-03-25T16:05:08.095Z,14.18
2023-03-25T16:07:37.257Z,14.20
2023-03-25T16:10:15.006Z,14.21
2023-03-25T16:12:46.381Z,14.19
2023-03-25T16:15:24.805Z,14.13
2023-03-25T16:17:54.463Z,14.03
2023-03-25T16:20:26.750Z,13.95
2023-03-25T16:22:58.417Z,13.89
2023-03-25T16:25:41.801Z,13.85
2023-03-25T16:28:19.552Z,13.81
2023-03-25T16:30:53.974Z,13.78
2023-03-25T16:33:29.591Z,13.71
2023-03-25T16:36:24.294Z,13.64
2023-03-25T16:38:53.661Z,13.59
2023-03-25T16:41:22.096Z,13.55
2023-03-25T16:43:50.258Z,13.50
2023-03-25T16:46:21.431Z,13.44
2023-03-25T16:48:56.017Z,13.40
2023-03-25T16:51:35.424Z,13.40
2023-03-25T16:54:09.904Z,13.38
2023-03-25T16:56:39.421Z,13.37
2023-03-25T16:59:18.425Z,13.33
2023-03-25T17:01:53.993Z,13.24
2023-03-25T17:04:39.416Z,13.12
2023-03-25T17:07:29.889Z,13.00
2023-03-25T17:09:59.505Z,12.85
2023-03-25T17:12:29.893Z,12.72
2023-03-25T17:15:09.351Z,12.60
2023-03-25T17:17:53.682Z,12.52
2023-03-25T17:20:32.882Z,12.43
2023-03-25T17:23:10.823Z,12.33
2023-03-25T17:25:52.926Z,12.21
2023-03-25T17:28:30.473Z,12.15
2023-03-25T17:30:59.396Z,12.10
2023-03-25T17:33:39.870Z,12.06
2023-03-25T17:36:12.927Z,12.09
2023-03-25T17:38:47.849Z,12.07
2023-03-25T17:41:18.599Z,12.06
2023-03-25T17:43:54.308Z,12.06
2023-03-25T17:46:25.051Z,12.04
2023-03-25T17:48:55.387Z,12.02
2023-03-25T17:51:26.691Z,12.00
2023-03-25T17:53:56.234Z,11.97
2023-03-25T17:56:27.971Z,11.94
2023-03-25T17:59:17.302Z,11.89
2023-03-25T18:01:47.584Z,11.85
2023-03-25T18:04:17.331Z,11.82
2023-03-25T18:06:45.434Z,11.78
2023-03-25T18:09:18.055Z,11.76
2023-03-25T18:11:48.206Z,11.73
2023-03-25T18:14:16.487Z,11.71
2023-03-25T18:16:45.198Z,11.69
2023-03-25T18:19:22.563Z,11.67
2023-03-25T18:21:51.389Z,11.64
2023-03-25T18:24:19.435Z,11.60
2023-03-25T18:26:48.428Z,11.54
2023-03-25T18:29:24.738Z,11.47
2023-03-25T18:31:53.376Z,11.47
2023-03-25T18:34:24.746Z,11.44
2023-03-25T18:36:54.162Z,11.41
2023-03-25T18:39:25.080Z,11.37
2023-03-25T18:41:53.114Z,11.34
2023-03-25T18:44:21.462Z,11.32
2023-03-25T18:46:49.592Z,11.29
2023-03-25T18:49:20.090Z,11.27
2023-03-25T18:51:48.766Z,11.27
2023-03-25T18:54:17.158Z,11.27
2023-03-25T18:56:45.678Z,11.26
2023-03-25T18:59:18.850Z,11.26
2023-03-25T19:01:47.678Z,11.24
2023-03-25T19:04:16.568Z,11.20
2023-03-25T19:06:44.712Z,11.12
2023-03-25T19:09:18.924Z,11.04
2023-03-25T19:11:48.955Z,10.94
2023-03-25T19:14:17.045Z,10.84
2023-03-25T19:16:57.028Z,10.81
2023-03-25T19:19:29.637Z,10.74
2023-03-25T19:21:57.725Z,10.71
2023-03-25T19:24:25.887Z,10.69
2023-03-25T19:26:53.936Z,10.69
2023-03-25T19:29:21.989Z,10.69
2023-03-25T19:31:50.283Z,10.68
2023-03-25T19:34:22.415Z,10.65
2023-03-25T19:36:53.298Z,10.61
2023-03-25T19:39:23.074Z,10.55
2023-03-25T19:41:53.054Z,10.51
2023-03-25T19:44:21.216Z,10.45
2023-03-25T19:46:49.974Z,10.46
2023-03-25T19:49:28.970Z,10.43
2023-03-25T19:52:01.543Z,10.42
2023-03-25T19:54:29.798Z,10.40
2023-03-25T19:56:57.974Z,10.37
2023-03-25T19:59:26.458Z,10.36
2023-03-25T20:01:54.603Z,10.37
2023-03-25T20:04:22.635Z,10.39
2023-03-25T20:06:50.761Z,10.41
2023-03-25T20:09:18.977Z,10.43
2023-03-25T20:11:47.938Z,10.44
2023-03-25T20:14:16.806Z,10.42
2023-03-25T20:16:45.005Z,10.41
2023-03-25T20:19:13.267Z,10.38
2023-03-25T20:21:41.763Z,10.32
2023-03-25T20:24:09.753Z,10.24
2023-03-25T20:26:37.912Z,10.17
2023-03-25T20:29:06.057Z,10.11
2023-03-25T20:31:34.358Z,10.08
2023-03-25T20:34:02.575Z,10.07
2023-03-25T20:36:31.176Z,10.07
2023-03-25T20:39:00.870Z,10.05
2023-03-25T20:41:29.012Z,10.05
2023-03-25T20:43:57.227Z,10.05
2023-03-25T20:46:28.725Z,10.05
2023-03-25T20:48:58.299Z,10.05
2023-03-25T20:51:26.448Z,10.07
2023-03-25T20:53:55.051Z,10.08
2023-03-25T20:56:23.139Z,10.10
2023-03-25T20:58:51.401Z,10.11
2023-03-25T21:01:21.413Z,10.11
2023-03-25T21:03:52.199Z,10.09
2023-03-25T21:06:24.853Z,10.06
2023-03-25T21:08:55.981Z,10.05
2023-03-25T21:11:24.580Z,10.05
2023-03-25T21:13:52.843Z,10.05
2023-03-25T21:16:21.349Z,10.04
2023-03-25T21:18:50.401Z,10.05
2023-03-25T21:21:19.934Z,10.05
2023-03-25T21:23:49.503Z,10.06
2023-03-25T21:26:17.782Z,10.06
2023-03-25T21:28:46.112Z,10.06
2023-03-25T21:31:19.620Z,10.06
2023-03-25T21:33:51.340Z,10.07
2023-03-25T21:36:24.445Z,10.05
2023-03-25T21:39:04.636Z,10.05
2023-03-25T21:41:32.816Z,10.03
2023-03-25T21:44:00.987Z,10.03
2023-03-25T21:46:29.222Z,10.01
2023-03-25T21:49:01.344Z,9.98
2023-03-25T21:51:30.989Z,9.98
2023-03-25T21:54:00.596Z,9.98
2023-03-25T21:56:31.508Z,9.99
2023-03-25T21:59:02.090Z,9.99
2023-03-25T22:01:30.925Z,9.97
2023-03-25T22:04:01.260Z,9.96
2023-03-25T22:06:32.056Z,9.94
2023-03-25T22:09:05.512Z,9.93
2023-03-25T22:11:37.855Z,9.93
2023-03-25T22:14:07.230Z,9.95
2023-03-25T22:16:36.651Z,9.96
2023-03-25T22:19:05.779Z,9.95
2023-03-25T22:21:37.574Z,9.95
2023-03-25T22:24:11.848Z,9.97
2023-03-25T22:26:43.410Z,10.00
2023-03-25T22:29:13.729Z,10.03
2023-03-25T22:31:43.145Z,10.05
2023-03-25T22:34:15.673Z,10.08
2023-03-25T22:36:50.451Z,10.10
2023-03-25T22:39:20.788Z,10.09
2023-03-25T22:41:49.114Z,10.06
2023-03-25T22:44:18.235Z,10.04
2023-03-25T22:46:47.587Z,10.03
2023-03-25T22:49:16.679Z,10.03
2023-03-25T22:51:44.900Z,10.03
2023-03-25T22:54:13.199Z,10.03
2023-03-25T22:56:43.778Z,10.03
2023-03-25T22:59:14.192Z,10.01
2023-03-25T23:01:43.091Z,10.00
2023-03-25T23:04:11.569Z,10.00
2023-03-25T23:06:41.981Z,9.97
2023-03-25T23:09:10.991Z,9.89
2023-03-25T23:11:39.224Z,9.84
2023-03-25T23:14:12.668Z,9.79
2023-03-25T23:16:42.082Z,9.76
2023-03-25T23:19:10.470Z,9.72
2023-03-25T23:21:40.675Z,9.71
2023-03-25T23:24:21.251Z,9.71
2023-03-25T23:26:49.916Z,9.69
2023-03-25T23:29:17.968Z,9.65
2023-03-25T23:31:46.030Z,9.63
2023-03-25T23:34:16.803Z,9.57
2023-03-25T23:36:46.802Z,9.52
2023-03-25T23:39:22.846Z,9.50
2023-03-25T23:41:51.684Z,9.48
2023-03-25T23:44:20.417Z,9.44
2023-03-25T23:46:51.284Z,9.37
2023-03-25T23:49:20.477Z,9.31
2023-03-25T23:52:11.695Z,9.20
2023-03-25T23:54:40.821Z,9.17
2023-03-25T23:57:09.198Z,9.16
2023-03-25T23:59:41.702Z,9.14
